ADDS METAR Data INFO
IDs: Format: Raw Decoded Include TAF

Data at: 0641 UTC 23 Feb 2018

KFDR 230553Z AUTO 23007KT 10SM OVC008 02/01 A3019 RMK AO2 SLP229 T00170006 10022 20017 400221028 58004
KFDR 230515Z AUTO 19005KT 10SM BKN006 OVC012 02/01 A3019 RMK AO2 T00170006
KFDR 230453Z AUTO 19007KT 9SM SCT006 OVC013 02/01 A3020 RMK AO2 SLP235 T00170006
KFDR 230424Z AUTO 18006KT 10SM FEW005 OVC014 02/01 A3020 RMK AO2 T00170006
KFDR 230353Z AUTO 18005KT 9SM SCT006 OVC016 02/01 A3020 RMK AO2 SLP234 T00170011
KFDR 230253Z AUTO 21006KT 8SM OVC006 02/01 A3020 RMK AO2 SLP233 T00220006 53015
KFDR 230204Z AUTO 19006KT 10SM BKN009 OVC021 02/01 A3019 RMK AO2 CIG 006V012 T00170006
KFDR 230153Z AUTO 20006KT 10SM SCT007 OVC021 02/01 A3018 RMK AO2 SLP228 T00170006
KFDR 230103Z AUTO 23005KT 10SM SCT009 OVC024 02/01 A3017 RMK AO2 T00220006
KFDR 230053Z AUTO 23005KT 10SM BKN009 OVC025 02/00 A3017 RMK AO2 SLP223 T00220000
KFDR 222353Z AUTO 19004KT 10SM OVC009 02/00 A3015 RMK AO2 SLP218 60000 T00220000 10022 21006 55008
KFDR 222253Z AUTO 00000KT 10SM OVC007 02/00 A3015 RMK AO2 SLP216 T00170000
KFDR 222153Z AUTO 00000KT 10SM OVC008 02/00 A3017 RMK AO2 SLP223 T00170000
KFDR 222053Z AUTO 00000KT 9SM OVC006 01/00 A3018 RMK AO2 SLP228 60000 T00060000 56025
KFDR 221953Z AUTO 33003KT 7SM OVC006 01/M01 A3020 RMK AO2 CIG 004V010 SLP234 T00061006
KFDR 221939Z AUTO 30004KT 4SM BR OVC006 00/M01 A3021 RMK AO2 T00001011
KFDR 221922Z AUTO 30005KT 4SM BR OVC005 00/M01 A3021 RMK AO2 T00001011
KFDR 221903Z AUTO 31004KT 4SM BR OVC006 00/M01 A3022 RMK AO2 CIG 003V009 T00001006
KFDR 221853Z AUTO 30005KT 3SM BR BKN004 OVC010 00/M01 A3023 RMK AO2 FZRAB1756E05B08E18 CIG 003V008 SLP243 P0000 T00001011
KFDR 221850Z AUTO 30005KT 3SM BR BKN004 OVC010 00/M01 A3022 RMK AO2 FZRAB1756E05B08E18 P0000
KFDR 221833Z AUTO 29004KT 2SM BR BKN005 OVC011 00/M01 A3024 RMK AO2 FZRAB1756E05B08E18 P0000 T00001011
KFDR 221822Z AUTO 00000KT 2 1/2SM BR BKN007 OVC010 M01/M01 A3024 RMK AO2 FZRAB1756E05B08E18 PRESFR P0000 T10061011
KFDR 221811Z AUTO 00000KT 2 1/2SM -FZRA BR OVC010 00/M01 A3026 RMK AO2 FZRAB1756E05B08 P0000 T00001011
KFDR 221806Z AUTO 00000KT 4SM BR OVC010 00/M01 A3026 RMK AO2 FZRAB1756E05 P0000 T00001011
KFDR 221802Z AUTO 00000KT 6SM -FZRA BR OVC008 M01/M02 A3026 RMK AO2 LTG DSNT NE FZRAB1756 CIG 006V012 P0000 T10061017
KFDR 221753Z AUTO 00000KT 7SM OVC008 M01/M01 A3026 RMK AO2 LTG DSNT NE FZRAE1656 CIG 006V011 SLP255 P0000 60017 T10061011 10000 21017 50009
KFDR 221730Z AUTO 35004KT 9SM BKN008 OVC041 M01/M02 A3025 RMK AO2 LTG DSNT N FZRAE1656 P0000 T10061017
KFDR 221715Z AUTO 36004KT 8SM VCTS OVC006 M01/M02 A3025 RMK AO2 LTG DSNT N FZRAE1656 PRESFR P0000 T10061017
KFDR 221702Z AUTO 31003KT 8SM OVC008 M01/M02 A3027 RMK AO2 FZRAE1656 CIG 006V011 P0000 T10061017
KFDR 221653Z AUTO 00000KT 8SM VCTS -FZRA OVC008 M01/M02 A3027 RMK AO2 LTG DSNT NW UPB1557E15B26E29FZRAE1557B29 CIG 006V010 SLP260 P0001 T10061017
KFDR 221635Z AUTO 22004KT 7SM -FZRA OVC008 M01/M02 A3029 RMK AO2 LTG DSNT ALQDS UPB1557E15B26E29FZRAE1557B29 P0001 T10061017
KFDR 221603Z AUTO 20003KT 8SM UP OVC007 M01/M02 A3029 RMK AO2 LTG DSNT NW-E UPB1557FZRAE1557 CIG 005V011 P0000 T10061017
KFDR 221553Z AUTO 18005KT 9SM -FZRA OVC007 M01/M02 A3029 RMK AO2 LTG DSNT NE AND E UPB04E16FZRAB16 SLP267 P0005 T10061017
KFDR 221538Z AUTO 18003KT 3SM -FZRA BR BKN006 OVC031 M01/M02 A3028 RMK AO2 LTG DSNT ALQDS UPB04E16FZRAB16 P0005 T10061017
KFDR 221527Z AUTO VRB05KT 2 1/2SM FZRA BR BKN006 OVC031 M01/M02 A3028 RMK AO2 LTG DSNT ALQDS UPB04E16FZRAB16 P0004 T10061017
KFDR 221522Z AUTO 18009KT 5SM -FZRA BR BKN006 OVC031 M01/M01 A3029 RMK AO2 LTG DSNT ALQDS UPB04E16FZRAB16 PRESRR P0002 T10061011
KFDR 221503Z AUTO 05005KT 8SM BKN006 OVC032 M01/M02 A3022 RMK AO2 LTG DSNT ALQDS CIG 004V009 T10061017
KFDR 221453Z AUTO 07008KT 5SM VCTS BR OVC006 M01/M02 A3023 RMK AO2 LTG DSNT ALQDS UPB26E28B45E47FZRAB28E45 TSB25E49 SLP245 P0011 60011 T10111017 55019
KFDR 221445Z AUTO 05005KT 5SM TSUP BR OVC006 M01/M01 A3024 RMK AO2 LTG DSNT ALQDS UPB26E28B45FZRAB28E45 TSB25 P0011 T10111011
KFDR 221440Z AUTO 00000KT 2SM -TSFZRA BR OVC006 M01/M02 A3026 RMK AO2 LTG DSNT ALQDS UPB26E28FZRAB28 TSB25 P0011 T10111017
KFDR 221430Z AUTO 04010KT 1 3/4SM TSFZRA BR BKN005 OVC011 M01/M02 A3022 RMK AO2 LTG DSNT ALQDS UPB26E28FZRAB28 TSB25 P0008 T10111017
KFDR 221428Z AUTO 07006KT 3SM -TSFZRA BR OVC005 M01/M02 A3024 RMK AO2 LTG DSNT ALQDS UPB26E28FZRAB28 TSB25 P0004 T10111017
KFDR 221418Z AUTO 32005KT 8SM VCTS OVC005 M01/M02 A3025 RMK AO2 LTG DSNT S-NW PRESRR T10111017
KFDR 221353Z AUTO 05007KT 7SM OVC003 M01/M02 A3022 RMK AO2 LTG DSNT SW AND W CIG 003V006 SLP243 T10111017
KFDR 221321Z AUTO 03009KT 5SM BR OVC003 M01/M02 A3023 RMK AO2 CIG 003V007 T10111022
KFDR 221302Z AUTO 02010KT 5SM BR OVC005 M01/M02 A3023 RMK AO2 CIG 003V007 PRESFR T10111022
KFDR 221253Z AUTO 02007KT 4SM BR OVC007 M01/M02 A3026 RMK AO2 CIG 003V009 SLP258 T10111022
KFDR 221202Z AUTO 31004KT 3SM BR OVC005 M01/M02 A3030 RMK AO2 CIG 002V007 T10111022
KFDR 221153Z AUTO 31005KT 2 1/2SM BR OVC003 M02/M02 A3029 RMK AO2 FZRAB27E49 CIG 002V007 SLP266 P0000 60000 70010 T10171022 11017 21028 53002
KFDR 221127Z AUTO 26004KT 2SM -FZRA BR OVC003 M02/M02 A3030 RMK AO2 FZRAB27 P0000 T10171022
KFDR 221053Z AUTO 00000KT 1 1/4SM BR OVC003 M02/M02 A3028 RMK AO2 SLP264 T10171022
KFDR 221025Z AUTO 00000KT 1 3/4SM BR OVC003 M02/M02 A3026 RMK AO2 T10171022
KFDR 220953Z AUTO 00000KT 2 1/2SM BR OVC004 M02/M03 A3027 RMK AO2 SLP261 T10171028
KFDR 220853Z AUTO 36005KT 6SM BR OVC004 M02/M02 A3028 RMK AO2 SLP263 T10171022 55009
KFDR 220800Z AUTO 01008KT 4SM BR OVC004 M02/M03 A3028 RMK AO2 T10221028
KFDR 220753Z AUTO 01008KT 3SM BR OVC005 M02/M03 A3028 RMK AO2 SLP263 T10221033
KFDR 220653Z AUTO 01009KT 6SM BR BKN005 BKN014 OVC023 M02/M03 A3031 RMK AO2 SLP273 T10221033
KFDR 220553Z AUTO 01010KT 8SM BKN006 OVC017 M03/M04 A3032 RMK AO2 SLP278 60001 T10281039 11028 21039 410171044 58001
KFDR 220453Z AUTO 36010KT 6SM BR OVC006 M03/M04 A3033 RMK AO2 SLP282 T10281039
KFDR 220353Z AUTO 36012KT 8SM OVC007 M03/M04 A3033 RMK AO2 SLP281 T10331044
KFDR 220027Z AUTO 01017KT 3SM BR BKN006 OVC010 M04/M05 A3034 RMK AO2 FZRAE2358B17E25 CIG 005V009 P0000 T10391050
KFDR 220018Z AUTO 36014KT 2SM -FZRA BR OVC007 M03/M04 A3033 RMK AO2 FZRAE2358B17 CIG 004V010 P0000 T10331044
KFDR 220004Z AUTO 36018KT 1 3/4SM BR BKN007 OVC012 M04/M05 A3033 RMK AO2 FZRAE2358 CIG 004V011 P0000 T10391050
KFDR 212353Z AUTO 36018KT 1 1/2SM -FZRA BR BKN008 OVC012 M04/M05 A3033 RMK AO2 UPB26E34FZRAB07E09B34SNB09E26 CIG 005V009 SLP283 P0000 60004 T10391050 11028 21044 51013
KFDR 212340Z AUTO 36018KT 1 1/4SM -FZRA BR BKN008 OVC012 M03/M05 A3034 RMK AO2 UPB26E34FZRAB07E09B34SNB09E26 CIG 005V011 P0000 T10331050
KFDR 212311Z AUTO 36019G23KT 1 3/4SM -SN BR OVC008 M03/M05 A3032 RMK AO2 FZRAB07E09SNB09 P0000 T10331050
KFDR 212308Z AUTO 36016KT 2 1/2SM -FZRA BR OVC008 M03/M05 A3032 RMK AO2 FZRAB07 P0000 T10331050
KFDR 212253Z AUTO 35017KT 5SM BR OVC008 M03/M05 A3031 RMK AO2 SLP275 T10331050
KFDR 212212Z AUTO 36018KT 7SM BKN009 OVC013 M03/M05 A3030 RMK AO2 CIG 008V013 T10331050
KFDR 212153Z AUTO 35018KT 7SM OVC013 M03/M05 A3031 RMK AO2 SLP275 T10331050
KFDR 212053Z AUTO 01016KT 10SM OVC012 M03/M06 A3029 RMK AO2 UPB1956E24 SLP268 P0000 60004 T10331056 58007
KFDR 211953Z AUTO 36014KT 10SM BKN010 OVC015 M03/M05 A3031 RMK AO2 UPE21 CIG 008V013 SLP275 P0000 T10331050
KFDR 211930Z AUTO 36013KT 4SM BR FEW009 OVC017 M04/M06 A3031 RMK AO2 UPE21 P0000 T10391056
KFDR 211920Z AUTO 36012KT 3SM UP BR FEW010 BKN019 OVC050 M04/M06 A3031 RMK AO2 P0000 T10391056
KFDR 211906Z AUTO 02015KT 2 1/2SM UP BR FEW010 BKN019 OVC049 M04/M06 A3029 RMK AO2 P0000 T10391056
KFDR 211859Z AUTO 02018KT 1 3/4SM UP BR FEW010 BKN034 OVC049 M04/M06 A3028 RMK AO2 PRESFR P0000 T10391061
KFDR 211853Z AUTO 01013KT 2SM UP BR FEW010 BKN019 OVC028 M04/M06 A3031 RMK AO2 UPB1759FZRAE1759 PRESFR SLP275 P0004 T10391061